Terminal Aerodrome Forecast
Issued by NWS Atlanta, GA

Home | Current Version | Previous Version | Text Only | Print | Product List | Glossary On
Versions: 1 2 3 4 5 6 7 8 9 10 11 12 13 14 15 16 17 18 19 20 21
778
FTUS42 KFFC 241935 AAA
TAFMCN
TAF AMD
KMCN 241935Z 2420/2518 24007KT 6SM -SHRA BKN035
      TEMPO 2420/2424 VRB15G30KT 2SM +TSRA BKN025CB
     FM250000 25008KT P6SM VCTS BKN045CB
     FM250300 26004KT P6SM VCSH BKN035
     FM250600 26004KT P6SM VCSH BKN025
     FM251400 30005KT P6SM BKN035=

USA.gov is the U.S. government's official web portal to all federal, state and local government web resources and services.